createdAt,value
2018-09-12T00:00:01.542Z,70.03
2018-09-12T00:05:01.947Z,70.24
2018-09-12T00:10:01.273Z,70.44
2018-09-12T00:15:01.565Z,70.72
2018-09-12T00:20:02.054Z,71.01
2018-09-12T00:25:01.427Z,71.32
2018-09-12T00:30:01.792Z,71.32
2018-09-12T00:35:02.312Z,71.46
2018-09-12T00:40:02.285Z,71.58
2018-09-12T00:45:01.590Z,71.84
2018-09-12T00:50:02.008Z,71.92
2018-09-12T00:55:01.504Z,72.15
2018-09-12T01:00:02.609Z,72.39
2018-09-12T01:05:02.081Z,72.69
2018-09-12T01:10:01.533Z,72.88
2018-09-12T01:15:01.795Z,72.79
2018-09-12T01:20:02.223Z,72.91
2018-09-12T01:25:01.651Z,73.2
2018-09-12T01:30:01.998Z,73.03
2018-09-12T01:35:01.377Z,73.24
2018-09-12T01:40:01.746Z,73.4
2018-09-12T01:45:01.984Z,73.52
2018-09-12T01:50:01.319Z,73.87
2018-09-12T01:55:01.602Z,74.23
2018-09-12T02:00:01.898Z,74.48
2018-09-12T02:05:01.229Z,75.19
2018-09-12T02:10:01.614Z,75.98
2018-09-12T02:15:02.050Z,76.39
2018-09-12T02:20:01.349Z,76.68
2018-09-12T02:25:01.778Z,77.12
2018-09-12T02:30:02.261Z,77.45
2018-09-12T02:35:01.746Z,77.9
2018-09-12T02:40:01.913Z,78.06
2018-09-12T02:45:01.261Z,77.98
2018-09-12T02:50:01.698Z,77.89
2018-09-12T02:55:02.071Z,77.79
2018-09-12T03:00:02.031Z,77.56
2018-09-12T03:05:01.353Z,77.57
2018-09-12T03:10:01.739Z,77.54
2018-09-12T03:15:02.047Z,77.77
2018-09-12T03:20:01.346Z,78.4
2018-09-12T03:25:01.761Z,79.05
2018-09-12T03:30:02.047Z,79.99
2018-09-12T03:35:01.321Z,80.9
2018-09-12T03:40:01.569Z,80.98
2018-09-12T03:45:01.850Z,80.86
2018-09-12T03:50:02.269Z,79.19
2018-09-12T03:55:01.674Z,78.59
2018-09-12T04:00:01.961Z,77.19
2018-09-12T04:05:01.310Z,76.29
2018-09-12T04:10:01.651Z,76.16
2018-09-12T04:15:01.954Z,76.02
2018-09-12T04:20:01.263Z,76.05
2018-09-12T04:25:01.656Z,76.78
2018-09-12T04:30:02.112Z,78.18
2018-09-12T04:35:01.591Z,78.28
2018-09-12T04:40:01.671Z,78.35
2018-09-12T04:45:01.973Z,78.73
2018-09-12T04:50:01.345Z,78.99
2018-09-12T04:55:01.770Z,79.29
2018-09-12T05:00:02.053Z,78.59
2018-09-12T05:05:01.487Z,78.52
2018-09-12T05:10:01.894Z,78.89
2018-09-12T05:15:01.150Z,78.88
2018-09-12T05:20:01.457Z,80.58
2018-09-12T05:25:01.899Z,80.85
2018-09-12T05:30:01.213Z,82.41
2018-09-12T05:35:01.623Z,83.55
2018-09-12T05:40:01.993Z,84.24
2018-09-12T05:45:01.285Z,85.16
2018-09-12T05:50:01.709Z,85.98
2018-09-12T05:55:01.230Z,86.57
2018-09-12T06:00:01.499Z,86.91
2018-09-12T06:05:02.032Z,87.61
2018-09-12T06:10:01.335Z,87.31
2018-09-12T06:15:01.663Z,85.66
2018-09-12T06:20:02.128Z,81.44
2018-09-12T06:25:01.433Z,80.55
2018-09-12T06:30:01.736Z,81.21
2018-09-12T06:35:02.176Z,81.36
2018-09-12T06:40:01.522Z,81.74
2018-09-12T06:45:01.804Z,82.12
2018-09-12T06:50:02.147Z,80.57
2018-09-12T06:55:01.504Z,75.51
2018-09-12T07:00:01.870Z,74.9
2018-09-12T07:05:01.212Z,70.02
2018-09-12T07:10:01.528Z,70.22
2018-09-12T07:15:01.812Z,71.64
2018-09-12T07:20:01.250Z,68.26
2018-09-12T07:25:01.533Z,69.48
2018-09-12T07:30:01.815Z,69.99
2018-09-12T07:35:02.272Z,71.54
2018-09-12T07:40:01.629Z,67.26
2018-09-12T07:45:01.917Z,66.12
2018-09-12T07:50:01.179Z,64.19
2018-09-12T07:55:01.500Z,64.77
2018-09-12T08:00:01.840Z,63.92
2018-09-12T08:05:01.557Z,64.13
2018-09-12T08:10:02.053Z,61.7
2018-09-12T08:15:01.811Z,60.78
2018-09-12T08:20:02.240Z,61.93
2018-09-12T08:25:01.580Z,61.41
2018-09-12T08:30:01.902Z,61.13
2018-09-12T08:35:01.238Z,62.34
2018-09-12T08:40:01.517Z,61.1
2018-09-12T08:45:01.781Z,62.26
2018-09-12T08:50:02.112Z,62.79
2018-09-12T08:55:01.406Z,64.11
2018-09-12T09:00:01.715Z,63.52
2018-09-12T09:05:02.167Z,64
2018-09-12T09:10:01.509Z,64.06
2018-09-12T09:15:01.779Z,64.67
2018-09-12T09:20:02.220Z,63.61
2018-09-12T09:25:01.702Z,62.23
2018-09-12T09:30:02.058Z,62.78
2018-09-12T09:35:01.813Z,63.58
2018-09-12T09:40:01.364Z,63.05
2018-09-12T09:45:01.693Z,63.58
2018-09-12T09:50:02.040Z,64.05
2018-09-12T09:55:01.485Z,64.8
2018-09-12T10:00:01.859Z,62.96
2018-09-12T10:05:01.212Z,61.95
2018-09-12T10:10:01.493Z,61.81
2018-09-12T10:15:01.795Z,62.88
2018-09-12T10:20:02.195Z,62.77
2018-09-12T10:25:01.545Z,63.41
2018-09-12T10:30:01.828Z,62.94
2018-09-12T10:35:02.338Z,62.09
2018-09-12T10:40:01.656Z,62.15
2018-09-12T10:45:01.970Z,62.61
2018-09-12T10:50:01.255Z,62.36
2018-09-12T10:55:01.574Z,62.41
2018-09-12T11:00:01.917Z,62.41
2018-09-12T11:05:01.239Z,61.31
2018-09-12T11:10:01.532Z,61.54
2018-09-12T11:15:01.820Z,61.17
2018-09-12T11:20:02.287Z,61.3
2018-09-12T11:25:01.641Z,60.87
2018-09-12T11:30:02.002Z,61.55
2018-09-12T11:35:01.357Z,61.35
2018-09-12T11:40:01.890Z,60.95
2018-09-12T11:45:01.227Z,59.81
2018-09-12T11:50:01.541Z,61.71
2018-09-12T11:55:01.881Z,62.26
2018-09-12T12:00:02.180Z,62.78
2018-09-12T12:05:01.469Z,61.45
2018-09-12T12:10:01.801Z,61.23
2018-09-12T12:15:02.044Z,61.84
2018-09-12T12:20:01.464Z,61.52
2018-09-12T12:25:01.799Z,60.59
2018-09-12T12:30:02.083Z,60.49
2018-09-12T12:35:01.422Z,59.95
2018-09-12T12:40:01.777Z,58.34
2018-09-12T12:45:02.023Z,59.29
2018-09-12T12:50:01.305Z,57.35
2018-09-12T12:55:01.659Z,57.42
2018-09-12T13:00:02.037Z,56.78
2018-09-12T13:05:01.371Z,57.4
2018-09-12T13:10:01.692Z,56.23
2018-09-12T13:15:02.042Z,57.11
2018-09-12T13:20:02.086Z,56.08
2018-09-12T13:25:01.377Z,57.27
2018-09-12T13:30:01.709Z,55.09
2018-09-12T13:35:02.163Z,54.66
2018-09-12T13:40:01.504Z,54.97
2018-09-12T13:45:01.807Z,53.67
2018-09-12T13:50:02.292Z,54.36
2018-09-12T13:55:01.685Z,54.74
2018-09-12T14:00:01.969Z,52.53
2018-09-12T14:05:01.279Z,54.41
2018-09-12T14:10:01.609Z,54.54
2018-09-12T14:15:01.884Z,53.45
2018-09-12T14:20:01.223Z,54
2018-09-12T14:25:01.757Z,53.61
2018-09-12T14:30:01.173Z,54.06
2018-09-12T14:35:01.512Z,55
2018-09-12T14:40:01.803Z,54.14
2018-09-12T14:45:02.318Z,54.86
2018-09-12T14:50:01.919Z,54.82
2018-09-12T14:55:01.228Z,55.18
2018-09-12T15:00:01.534Z,54.31
2018-09-12T15:05:02.405Z,54.8
2018-09-12T15:10:01.818Z,55.02
2018-09-12T15:15:02.087Z,55.59
2018-09-12T15:20:01.358Z,55.7
2018-09-12T15:25:01.732Z,58.73
2018-09-12T15:30:02.054Z,63.58
2018-09-12T15:35:01.404Z,67.7
2018-09-12T15:40:01.708Z,69.78
2018-09-12T15:45:02.040Z,71.43
2018-09-12T15:50:01.341Z,71.27
2018-09-12T15:55:01.682Z,71.88
2018-09-12T16:00:01.989Z,72.71
2018-09-12T16:05:01.326Z,74.47
2018-09-12T16:10:01.650Z,75.15
2018-09-12T16:15:01.897Z,76.21
2018-09-12T16:20:01.252Z,76.71
2018-09-12T16:25:01.604Z,76.79
2018-09-12T16:30:01.841Z,76.79
2018-09-12T16:35:02.340Z,77.24
2018-09-12T16:40:01.684Z,77.95
2018-09-12T16:45:02.051Z,78.19
2018-09-12T16:50:01.332Z,79.04
2018-09-12T16:55:01.656Z,80.09
2018-09-12T17:00:01.978Z,80.34
2018-09-12T17:05:01.269Z,80.75
2018-09-12T17:10:01.531Z,80.99
2018-09-12T17:15:01.892Z,81.15
2018-09-12T17:20:01.226Z,81.29
2018-09-12T17:25:01.616Z,81.73
2018-09-12T17:30:01.889Z,83.03
2018-09-12T17:35:01.280Z,83.32
2018-09-12T17:40:01.536Z,83.79
2018-09-12T17:45:01.821Z,84.11
2018-09-12T17:50:02.225Z,84.21
2018-09-12T17:55:01.614Z,84.41
2018-09-12T18:00:01.907Z,84.62
2018-09-12T18:05:01.264Z,84.86
2018-09-12T18:10:01.592Z,85.07
2018-09-12T18:15:01.848Z,85.53
2018-09-12T18:20:02.161Z,85.87
2018-09-12T18:25:01.413Z,86.24
2018-09-12T18:30:01.749Z,86.32
2018-09-12T18:35:02.176Z,86.51
2018-09-12T18:40:01.545Z,86.41
2018-09-12T18:45:01.871Z,86.59
2018-09-12T18:50:02.297Z,86.88
2018-09-12T18:55:01.622Z,87.2
2018-09-12T19:00:01.895Z,87.29
2018-09-12T19:05:01.189Z,87.73
2018-09-12T19:10:01.514Z,87.75
2018-09-12T19:15:01.800Z,87.78
2018-09-12T19:20:02.207Z,87.76
2018-09-12T19:25:01.566Z,87.46
2018-09-12T19:30:02.034Z,87.52
2018-09-12T19:35:01.441Z,87.49
2018-09-12T19:40:01.861Z,87.14
2018-09-12T19:45:01.225Z,86.77
2018-09-12T19:50:01.553Z,87.11
2018-09-12T19:55:01.973Z,87.02
2018-09-12T20:00:01.307Z,86.95
2018-09-12T20:05:01.734Z,86.83
2018-09-12T20:10:02.182Z,86.7
2018-09-12T20:15:02.126Z,86.79
2018-09-12T20:20:01.481Z,86.72
2018-09-12T20:25:01.952Z,86.71
2018-09-12T20:30:01.610Z,86.72
2018-09-12T20:35:02.293Z,86.96
2018-09-12T20:40:01.738Z,86.93
2018-09-12T20:45:02.209Z,86.78
2018-09-12T20:50:01.616Z,86.94
2018-09-12T20:55:02.057Z,87.08
2018-09-12T21:00:01.406Z,86.75
2018-09-12T21:05:01.811Z,86.87
2018-09-12T21:10:02.241Z,86.86
2018-09-12T21:15:01.576Z,87.06
2018-09-12T21:20:01.860Z,87.25
2018-09-12T21:25:02.331Z,87.42
2018-09-12T21:30:01.753Z,88.13
2018-09-12T21:35:02.206Z,88.52
2018-09-12T21:40:01.652Z,88.94
2018-09-12T21:45:02.185Z,89.1
2018-09-12T21:50:01.626Z,90.04
2018-09-12T21:55:02.042Z,90.58
2018-09-12T22:00:01.387Z,91.05
2018-09-12T22:05:01.850Z,90.89
2018-09-12T22:10:02.271Z,90.84
2018-09-12T22:15:01.696Z,90.6
2018-09-12T22:20:02.227Z,90.39
2018-09-12T22:25:01.669Z,90.42
2018-09-12T22:30:02.039Z,90.18
2018-09-12T22:35:01.383Z,90.26
2018-09-12T22:40:01.885Z,90.04
2018-09-12T22:45:01.231Z,90.15
2018-09-12T22:50:01.627Z,90.33
2018-09-12T22:55:02.048Z,90.4
2018-09-12T23:00:01.427Z,90.5
2018-09-12T23:05:01.895Z,90.38
2018-09-12T23:10:01.251Z,90.38
2018-09-12T23:15:01.817Z,90.14
2018-09-12T23:20:02.321Z,90.39
2018-09-12T23:25:01.778Z,90.8
2018-09-12T23:30:02.237Z,91.08
2018-09-12T23:35:01.680Z,91.31
2018-09-12T23:40:02.132Z,91.58
2018-09-12T23:45:01.601Z,91.68
2018-09-12T23:50:02.142Z,91.52
2018-09-12T23:55:01.578Z,91.34
